createdAt,value
2018-09-27T00:01:48.256Z,72.42
2018-09-27T00:04:18.515Z,72.42
2018-09-27T00:06:48.920Z,72.04
2018-09-27T00:09:18.932Z,72.45
2018-09-27T00:11:49.116Z,72.55
2018-09-27T00:14:19.227Z,72.85
2018-09-27T00:16:49.297Z,71.67
2018-09-27T00:19:19.536Z,71.54
2018-09-27T00:21:49.567Z,72.38
2018-09-27T00:24:19.784Z,71.84
2018-09-27T00:26:50.548Z,72.05
2018-09-27T00:29:20.494Z,71.85
2018-09-27T00:31:50.562Z,71.62
2018-09-27T00:34:20.898Z,72.08
2018-09-27T00:36:51.034Z,71.50
2018-09-27T00:39:21.184Z,71.99
2018-09-27T00:41:51.380Z,71.51
2018-09-27T00:44:21.866Z,72.08
2018-09-27T00:46:52.445Z,71.42
2018-09-27T00:49:22.715Z,71.48
2018-09-27T00:51:52.595Z,71.03
2018-09-27T00:54:22.397Z,71.99
2018-09-27T00:56:52.261Z,71.21
2018-09-27T00:59:22.050Z,71.51
2018-09-27T01:01:51.804Z,71.32
2018-09-27T01:04:21.701Z,70.98
2018-09-27T01:06:52.219Z,71.90
2018-09-27T01:09:22.187Z,71.67
2018-09-27T01:11:52.132Z,72.00
2018-09-27T01:14:22.099Z,71.58
2018-09-27T01:16:52.120Z,71.43
2018-09-27T01:19:22.095Z,71.65
2018-09-27T01:21:51.903Z,72.03
2018-09-27T01:24:21.947Z,71.31
2018-09-27T01:26:51.923Z,71.18
2018-09-27T01:29:21.856Z,70.71
2018-09-27T01:31:51.723Z,71.30
2018-09-27T01:34:21.676Z,71.87
2018-09-27T01:36:51.640Z,71.58
2018-09-27T01:39:21.640Z,71.25
2018-09-27T01:41:51.506Z,71.28
2018-09-27T01:44:21.387Z,71.25
2018-09-27T01:46:51.290Z,71.54
2018-09-27T01:49:22.238Z,70.72
2018-09-27T01:51:52.139Z,70.91
2018-09-27T01:54:22.152Z,71.05
2018-09-27T01:56:51.937Z,71.42
2018-09-27T01:59:21.888Z,71.87
2018-09-27T02:01:51.940Z,71.04
2018-09-27T02:04:21.914Z,70.83
2018-09-27T02:06:51.705Z,71.86
2018-09-27T02:09:21.759Z,71.73
2018-09-27T02:11:51.835Z,72.80
2018-09-27T02:14:22.017Z,72.83
2018-09-27T02:16:51.887Z,73.20
2018-09-27T02:19:21.791Z,73.67
2018-09-27T02:21:51.836Z,73.63
2018-09-27T02:24:22.173Z,73.59
2018-09-27T02:26:52.135Z,73.49
2018-09-27T02:29:22.029Z,73.74
2018-09-27T02:31:51.916Z,73.83
2018-09-27T02:34:21.914Z,74.42
2018-09-27T02:36:51.913Z,74.18
2018-09-27T02:39:21.714Z,74.81
2018-09-27T02:41:51.675Z,74.44
2018-09-27T02:44:21.866Z,74.45
2018-09-27T02:46:51.924Z,74.31
2018-09-27T02:49:21.792Z,74.26
2018-09-27T02:51:51.773Z,74.18
2018-09-27T02:54:21.719Z,73.50
2018-09-27T02:56:51.687Z,73.88
2018-09-27T02:59:21.483Z,73.98
2018-09-27T03:01:51.228Z,73.35
2018-09-27T03:04:21.376Z,73.20
2018-09-27T03:06:51.249Z,72.01
2018-09-27T03:09:21.096Z,71.58
2018-09-27T03:11:50.883Z,72.40
2018-09-27T03:14:20.929Z,72.05
2018-09-27T03:16:50.698Z,72.06
2018-09-27T03:19:20.428Z,71.80
2018-09-27T03:21:50.451Z,71.34
2018-09-27T03:24:20.221Z,71.58
2018-09-27T03:26:50.279Z,71.72
2018-09-27T03:29:20.174Z,71.33
2018-09-27T03:31:50.241Z,71.12
2018-09-27T03:34:20.156Z,71.42
2018-09-27T03:36:50.065Z,70.94
2018-09-27T03:39:20.000Z,71.55
2018-09-27T03:41:49.961Z,71.09
2018-09-27T03:44:19.831Z,71.04
2018-09-27T03:46:49.613Z,70.69
2018-09-27T03:49:19.540Z,70.85
2018-09-27T03:51:49.304Z,71.20
2018-09-27T03:54:19.312Z,71.20
2018-09-27T03:56:49.383Z,71.84
2018-09-27T03:59:19.458Z,71.07
2018-09-27T04:01:49.681Z,71.03
2018-09-27T04:04:19.684Z,70.84
2018-09-27T04:06:49.605Z,71.50
2018-09-27T04:09:19.655Z,71.58
2018-09-27T04:11:49.701Z,71.61
2018-09-27T04:14:19.708Z,71.45
2018-09-27T04:16:49.705Z,71.74
2018-09-27T04:19:19.558Z,71.95
2018-09-27T04:21:49.474Z,71.67
2018-09-27T04:24:19.536Z,71.83
2018-09-27T04:26:49.395Z,72.05
2018-09-27T04:29:19.296Z,72.27
2018-09-27T04:31:49.023Z,71.75
2018-09-27T04:34:18.993Z,71.91
2018-09-27T04:36:48.747Z,71.78
2018-09-27T04:39:18.895Z,72.71
2018-09-27T04:41:48.988Z,71.68
2018-09-27T04:44:19.126Z,72.36
2018-09-27T04:46:49.041Z,72.35
2018-09-27T04:49:18.921Z,72.06
2018-09-27T04:51:49.221Z,72.49
2018-09-27T04:54:19.359Z,72.33
2018-09-27T04:59:19.123Z,72.75
2018-09-27T05:01:49.104Z,72.34
2018-09-27T05:04:18.860Z,72.14
2018-09-27T05:06:48.942Z,72.36
2018-09-27T05:09:18.763Z,72.99
2018-09-27T05:11:48.568Z,72.77
2018-09-27T05:14:18.295Z,72.68
2018-09-27T05:16:48.335Z,73.22
2018-09-27T05:19:18.297Z,73.30
2018-09-27T05:21:48.175Z,73.38
2018-09-27T05:24:17.904Z,72.77
2018-09-27T05:26:47.809Z,73.34
2018-09-27T05:29:17.980Z,72.89
2018-09-27T05:31:47.948Z,73.35
2018-09-27T05:34:18.023Z,73.12
2018-09-27T05:36:48.119Z,72.51
2018-09-27T05:39:17.926Z,72.95
2018-09-27T05:41:47.740Z,72.74
2018-09-27T05:44:18.133Z,72.30
2018-09-27T05:46:48.044Z,72.12
2018-09-27T05:49:18.001Z,71.68
2018-09-27T05:51:47.820Z,72.16
2018-09-27T05:54:18.218Z,72.56
2018-09-27T05:56:48.312Z,72.06
2018-09-27T05:59:18.464Z,71.69
2018-09-27T06:01:48.355Z,71.61
2018-09-27T06:04:18.016Z,71.06
2018-09-27T06:06:47.967Z,71.16
2018-09-27T06:09:17.876Z,70.25
2018-09-27T06:11:47.856Z,70.23
2018-09-27T06:14:17.694Z,70.03
2018-09-27T06:16:47.579Z,70.21
2018-09-27T06:19:17.462Z,69.49
2018-09-27T06:21:47.109Z,68.87
2018-09-27T06:24:16.926Z,68.60
2018-09-27T06:26:46.833Z,68.30
2018-09-27T06:29:16.691Z,68.25
2018-09-27T06:31:46.418Z,67.88
2018-09-27T06:34:16.148Z,67.12
2018-09-27T06:36:46.143Z,67.00
2018-09-27T06:39:15.955Z,66.94
2018-09-27T06:41:46.102Z,66.88
2018-09-27T06:44:15.924Z,66.43
2018-09-27T06:46:45.644Z,66.15
2018-09-27T06:49:15.331Z,65.17
2018-09-27T06:51:45.086Z,65.33
2018-09-27T06:54:14.980Z,64.26
2018-09-27T06:56:44.764Z,63.98
2018-09-27T06:59:14.776Z,64.18
2018-09-27T07:01:44.493Z,64.03
2018-09-27T07:04:14.443Z,63.55
2018-09-27T07:06:44.696Z,62.71
2018-09-27T07:09:14.953Z,62.02
2018-09-27T07:11:45.364Z,61.87
2018-09-27T07:14:16.011Z,62.17
2018-09-27T07:16:46.327Z,61.46
2018-09-27T07:19:16.563Z,61.24
2018-09-27T07:21:46.981Z,60.74
2018-09-27T07:24:16.976Z,60.82
2018-09-27T07:26:47.683Z,60.23
2018-09-27T07:29:17.860Z,60.25
2018-09-27T07:31:48.127Z,59.69
2018-09-27T07:34:18.466Z,59.24
2018-09-27T07:36:48.780Z,59.79
2018-09-27T07:39:19.218Z,59.73
2018-09-27T07:41:49.268Z,59.43
2018-09-27T07:44:19.404Z,58.79
2018-09-27T07:46:49.348Z,58.41
2018-09-27T07:49:19.289Z,58.29
2018-09-27T07:51:49.187Z,57.29
2018-09-27T07:54:18.983Z,57.89
2018-09-27T07:56:48.850Z,58.21
2018-09-27T07:59:18.840Z,57.62
2018-09-27T08:01:48.816Z,57.17
2018-09-27T08:04:18.727Z,57.36
2018-09-27T08:06:48.715Z,56.12
2018-09-27T08:09:18.543Z,55.88
2018-09-27T08:11:48.524Z,54.88
2018-09-27T08:14:18.413Z,55.20
2018-09-27T08:16:48.327Z,55.77
2018-09-27T08:19:18.168Z,55.56
2018-09-27T08:21:47.950Z,54.90
2018-09-27T08:24:18.080Z,54.28
2018-09-27T08:26:47.983Z,54.68
2018-09-27T08:29:17.940Z,53.75
2018-09-27T08:31:48.161Z,53.74
2018-09-27T08:34:18.353Z,53.86
2018-09-27T08:36:48.292Z,52.84
2018-09-27T08:39:18.597Z,53.41
2018-09-27T08:41:48.366Z,51.83
2018-09-27T08:44:18.385Z,52.50
2018-09-27T08:46:48.298Z,52.39
2018-09-27T08:49:18.585Z,52.46
2018-09-27T08:51:48.480Z,52.52
2018-09-27T08:54:18.717Z,52.04
2018-09-27T08:56:48.715Z,51.98
2018-09-27T08:59:18.579Z,50.71
2018-09-27T09:01:48.583Z,50.90
2018-09-27T09:04:18.853Z,50.88
2018-09-27T09:06:49.117Z,50.72
2018-09-27T09:09:19.121Z,48.77
2018-09-27T09:11:48.975Z,48.86
2018-09-27T09:14:18.864Z,49.01
2018-09-27T09:16:48.800Z,49.30
2018-09-27T09:19:18.920Z,49.15
2018-09-27T09:21:48.822Z,49.09
2018-09-27T09:24:18.723Z,48.31
2018-09-27T09:26:48.887Z,48.59
2018-09-27T09:29:19.066Z,49.07
2018-09-27T09:31:48.787Z,48.94
2018-09-27T09:34:18.956Z,48.04
2018-09-27T09:36:48.956Z,47.54
2018-09-27T09:39:18.962Z,46.81
2018-09-27T09:41:49.003Z,46.99
2018-09-27T09:44:18.873Z,46.57
2018-09-27T09:46:48.704Z,46.41
2018-09-27T09:49:18.696Z,46.91
2018-09-27T09:51:48.917Z,46.68
2018-09-27T09:54:19.072Z,47.38
2018-09-27T09:56:49.328Z,46.62
2018-09-27T09:59:19.579Z,46.35
2018-09-27T10:01:50.032Z,45.79
2018-09-27T10:04:20.312Z,45.51
2018-09-27T10:06:52.121Z,46.14
2018-09-27T10:09:22.596Z,45.54
2018-09-27T10:11:53.378Z,45.55
2018-09-27T10:14:24.220Z,46.27
2018-09-27T10:16:54.160Z,45.82
2018-09-27T10:19:24.326Z,46.27
2018-09-27T10:21:54.313Z,47.14
2018-09-27T10:24:24.437Z,46.40
2018-09-27T10:26:54.847Z,45.52
2018-09-27T10:29:24.768Z,44.12
2018-09-27T10:31:54.955Z,44.86
2018-09-27T10:34:24.979Z,44.51
2018-09-27T10:36:55.372Z,43.63
2018-09-27T10:39:25.323Z,43.38
2018-09-27T10:41:55.378Z,42.88
2018-09-27T10:44:25.338Z,42.68
2018-09-27T10:46:55.630Z,42.91
2018-09-27T10:49:25.588Z,42.39
2018-09-27T10:51:55.613Z,42.99
2018-09-27T10:54:25.412Z,43.25
2018-09-27T10:56:55.389Z,43.34
2018-09-27T10:59:25.351Z,42.54
2018-09-27T11:01:55.375Z,42.21
2018-09-27T11:04:25.289Z,42.38
2018-09-27T11:06:55.612Z,41.74
2018-09-27T11:09:25.494Z,41.57
2018-09-27T11:11:55.879Z,39.90
2018-09-27T11:14:25.776Z,39.47
2018-09-27T11:16:55.711Z,39.77
2018-09-27T11:19:26.042Z,39.33
2018-09-27T11:21:56.185Z,39.32
2018-09-27T11:24:26.206Z,39.16
2018-09-27T11:26:57.044Z,38.17
2018-09-27T11:29:32.039Z,37.28
2018-09-27T11:32:07.120Z,37.94
2018-09-27T11:34:37.043Z,37.01
2018-09-27T11:37:07.081Z,37.37
2018-09-27T11:39:37.569Z,36.44
2018-09-27T11:42:07.791Z,37.03
2018-09-27T11:44:37.672Z,36.69
2018-09-27T11:47:08.177Z,36.56
2018-09-27T11:49:38.679Z,35.85
2018-09-27T11:52:08.663Z,35.47
2018-09-27T11:54:38.594Z,34.91
2018-09-27T11:57:08.590Z,36.17
2018-09-27T11:59:38.652Z,35.34
2018-09-27T12:02:08.765Z,35.98
2018-09-27T12:04:38.752Z,36.05
2018-09-27T12:07:08.808Z,35.96
2018-09-27T12:09:38.915Z,35.50
2018-09-27T12:12:09.001Z,35.40
2018-09-27T12:14:38.861Z,35.31
2018-09-27T12:17:08.820Z,35.33
2018-09-27T12:19:39.106Z,34.18
2018-09-27T12:22:09.093Z,34.95
2018-09-27T12:24:39.010Z,35.60
2018-09-27T12:27:08.984Z,36.14
2018-09-27T12:29:39.218Z,36.04
2018-09-27T12:32:09.437Z,36.04
2018-09-27T12:34:39.554Z,35.13
2018-09-27T12:37:09.595Z,34.56
2018-09-27T12:39:39.782Z,35.34
2018-09-27T12:42:09.964Z,35.93
2018-09-27T12:44:39.770Z,36.21
2018-09-27T12:47:09.778Z,36.12
2018-09-27T12:49:39.784Z,35.35
2018-09-27T12:52:09.790Z,35.32
2018-09-27T12:54:39.808Z,35.97
2018-09-27T12:57:09.970Z,35.78
2018-09-27T12:59:39.953Z,34.60
2018-09-27T13:02:10.732Z,32.73
2018-09-27T13:04:41.291Z,31.81
2018-09-27T13:07:11.984Z,31.21
2018-09-27T13:09:43.075Z,31.17
2018-09-27T13:12:13.817Z,31.42
2018-09-27T13:14:44.335Z,32.88
2018-09-27T13:17:14.738Z,32.19
2018-09-27T13:19:44.822Z,31.01
2018-09-27T13:22:15.382Z,31.67
2018-09-27T13:24:45.554Z,30.85
2018-09-27T13:27:16.171Z,29.65
2018-09-27T13:29:46.289Z,29.30
2018-09-27T13:32:16.109Z,30.11
2018-09-27T13:34:46.319Z,30.71
2018-09-27T13:37:16.431Z,31.38
2018-09-27T13:39:46.624Z,30.09
2018-09-27T13:42:16.523Z,29.74
2018-09-27T13:44:46.484Z,29.28
2018-09-27T13:47:17.117Z,29.43
2018-09-27T13:49:47.295Z,28.77
2018-09-27T13:52:17.592Z,28.72
2018-09-27T13:54:48.010Z,29.75
2018-09-27T13:57:17.905Z,29.67
2018-09-27T13:59:47.944Z,28.88
2018-09-27T14:02:18.236Z,29.51
2018-09-27T14:04:48.186Z,29.29
2018-09-27T14:07:18.906Z,29.22
2018-09-27T14:09:49.096Z,28.53
2018-09-27T14:12:19.196Z,29.27
2018-09-27T14:14:50.153Z,28.64
2018-09-27T14:17:20.076Z,28.74
2018-09-27T14:19:50.115Z,29.58
2018-09-27T14:22:20.805Z,29.65
2018-09-27T14:24:50.771Z,29.73
2018-09-27T14:27:20.687Z,28.87
2018-09-27T14:29:50.736Z,30.42
2018-09-27T14:32:20.934Z,30.91
2018-09-27T14:34:51.244Z,31.67
2018-09-27T14:37:21.234Z,32.60
2018-09-27T14:39:51.213Z,32.66
2018-09-27T14:42:21.267Z,32.15
2018-09-27T14:44:51.267Z,33.34
2018-09-27T14:47:21.209Z,33.44
2018-09-27T14:49:51.247Z,32.78
2018-09-27T14:52:21.414Z,32.94
2018-09-27T14:54:51.283Z,32.96
2018-09-27T14:57:21.265Z,33.70
2018-09-27T14:59:51.315Z,34.03
2018-09-27T15:02:21.774Z,33.82
2018-09-27T15:04:51.887Z,34.52
2018-09-27T15:07:21.819Z,33.92
2018-09-27T15:09:52.197Z,35.33
2018-09-27T15:12:23.590Z,35.23
2018-09-27T15:14:53.935Z,35.41
2018-09-27T15:17:23.922Z,36.06
2018-09-27T15:19:53.786Z,35.95
2018-09-27T15:22:23.716Z,35.68
2018-09-27T15:24:53.553Z,35.36
2018-09-27T15:27:23.905Z,36.14
2018-09-27T15:29:53.880Z,35.78
2018-09-27T15:32:23.754Z,36.52
2018-09-27T15:34:53.907Z,36.12
2018-09-27T15:37:24.091Z,37.07
2018-09-27T15:39:54.039Z,36.77
2018-09-27T15:42:24.375Z,36.88
2018-09-27T15:44:54.411Z,37.09
2018-09-27T15:47:24.603Z,37.29
2018-09-27T15:49:54.939Z,37.42
2018-09-27T15:52:24.796Z,37.02
2018-09-27T15:54:55.278Z,38.27
2018-09-27T15:57:25.228Z,38.40
2018-09-27T15:59:55.336Z,38.37
2018-09-27T16:02:25.467Z,39.39
2018-09-27T16:04:55.485Z,39.19
2018-09-27T16:07:25.497Z,39.88
2018-09-27T16:09:55.354Z,39.61
2018-09-27T16:12:25.614Z,39.98
2018-09-27T16:14:55.775Z,39.96
2018-09-27T16:17:25.859Z,40.63
2018-09-27T16:19:55.685Z,40.79
2018-09-27T16:22:25.933Z,41.23
2018-09-27T16:24:55.758Z,40.90
2018-09-27T16:27:25.521Z,41.64
2018-09-27T16:29:55.577Z,42.77
2018-09-27T16:32:25.580Z,43.41
2018-09-27T16:34:55.503Z,43.01
2018-09-27T16:37:25.509Z,44.07
2018-09-27T16:39:55.506Z,44.83
2018-09-27T16:42:25.282Z,43.69
2018-09-27T16:44:55.194Z,44.74
2018-09-27T16:47:25.044Z,44.25
2018-09-27T16:49:54.840Z,45.30
2018-09-27T16:52:24.745Z,45.62
2018-09-27T16:54:54.704Z,46.07
2018-09-27T16:57:24.752Z,45.94
2018-09-27T16:59:54.775Z,46.96
2018-09-27T17:02:24.593Z,46.93
2018-09-27T17:04:54.484Z,46.62
2018-09-27T17:07:24.548Z,47.62
2018-09-27T17:09:54.395Z,47.05
2018-09-27T17:12:24.167Z,46.60
2018-09-27T17:14:54.024Z,47.16
2018-09-27T17:17:23.806Z,48.71
2018-09-27T17:19:53.685Z,48.40
2018-09-27T17:22:23.461Z,48.38
2018-09-27T17:24:53.623Z,48.63
2018-09-27T17:27:23.354Z,49.46
2018-09-27T17:29:53.151Z,51.43
2018-09-27T17:32:23.083Z,50.99
2018-09-27T17:34:52.941Z,52.52
2018-09-27T17:37:22.954Z,51.94
2018-09-27T17:39:52.711Z,53.18
2018-09-27T17:42:22.596Z,53.47
2018-09-27T17:44:52.325Z,53.64
2018-09-27T17:47:22.026Z,53.83
2018-09-27T17:49:51.985Z,54.78
2018-09-27T17:52:21.725Z,54.86
2018-09-27T17:54:51.587Z,55.64
2018-09-27T17:57:23.395Z,55.01
2018-09-27T17:59:54.647Z,56.41
2018-09-27T18:02:25.105Z,56.53
2018-09-27T18:04:55.114Z,56.53
2018-09-27T18:07:24.901Z,56.93
2018-09-27T18:09:54.667Z,56.77
2018-09-27T18:12:24.406Z,56.94
2018-09-27T18:14:54.207Z,57.29
2018-09-27T18:17:24.472Z,57.99
2018-09-27T18:19:54.267Z,57.52
2018-09-27T18:22:24.052Z,57.86
2018-09-27T18:24:53.785Z,57.96
2018-09-27T18:27:23.634Z,58.77
2018-09-27T18:30:00.023Z,58.49
2018-09-27T18:32:29.869Z,59.55
2018-09-27T18:34:59.646Z,59.07
2018-09-27T18:37:30.049Z,59.96
2018-09-27T18:39:59.917Z,59.99
2018-09-27T18:42:29.709Z,60.37
2018-09-27T18:44:59.681Z,60.73
2018-09-27T18:47:29.561Z,61.12
2018-09-27T18:49:59.575Z,60.99
2018-09-27T18:52:29.436Z,61.23
2018-09-27T18:54:59.391Z,61.89
2018-09-27T18:57:29.269Z,61.61
2018-09-27T18:59:59.114Z,62.77
2018-09-27T19:02:29.248Z,62.46
2018-09-27T19:04:59.178Z,63.25
2018-09-27T19:07:29.620Z,63.20
2018-09-27T19:09:59.552Z,63.53
2018-09-27T19:12:29.419Z,64.25
2018-09-27T19:14:59.285Z,64.43
2018-09-27T19:17:29.250Z,64.33
2018-09-27T19:19:59.180Z,65.32
2018-09-27T19:22:29.157Z,64.71
2018-09-27T19:24:59.206Z,64.57
2018-09-27T19:27:29.075Z,65.19
2018-09-27T19:30:00.039Z,66.52
2018-09-27T19:32:30.318Z,66.05
2018-09-27T19:35:00.218Z,65.87
2018-09-27T19:37:30.056Z,66.47
2018-09-27T19:39:59.866Z,66.88
2018-09-27T19:42:29.774Z,66.28
2018-09-27T19:44:59.663Z,67.18
2018-09-27T19:47:29.942Z,67.13
2018-09-27T19:49:59.802Z,67.88
2018-09-27T19:52:29.632Z,67.23
2018-09-27T19:54:59.662Z,67.28
2018-09-27T19:57:29.511Z,67.32
2018-09-27T19:59:59.524Z,68.35
2018-09-27T20:02:29.454Z,68.18
2018-09-27T20:04:59.331Z,68.73
2018-09-27T20:07:29.117Z,68.52
2018-09-27T20:09:59.393Z,68.44
2018-09-27T20:12:30.178Z,69.16
2018-09-27T20:15:00.087Z,69.59
2018-09-27T20:17:29.918Z,68.75
2018-09-27T20:19:59.733Z,69.18
2018-09-27T20:22:29.651Z,69.90
2018-09-27T20:24:59.510Z,69.76
2018-09-27T20:27:29.462Z,70.32
2018-09-27T20:29:59.376Z,69.39
2018-09-27T20:32:29.200Z,69.56
2018-09-27T20:34:59.157Z,69.91
2018-09-27T20:37:29.174Z,70.39
2018-09-27T20:39:59.102Z,70.11
2018-09-27T20:42:28.883Z,70.98
2018-09-27T20:44:58.907Z,71.02
2018-09-27T20:47:29.751Z,70.93
2018-09-27T20:49:59.549Z,71.39
2018-09-27T20:52:29.512Z,70.64
2018-09-27T20:55:00.745Z,71.49
2018-09-27T20:57:33.853Z,71.13
2018-09-27T21:00:04.517Z,70.74
2018-09-27T21:02:34.441Z,71.07
2018-09-27T21:05:04.354Z,70.89
2018-09-27T21:07:35.124Z,71.63
2018-09-27T21:10:05.129Z,71.86
2018-09-27T21:12:34.985Z,71.80
2018-09-27T21:15:04.932Z,71.63
2018-09-27T21:17:35.144Z,71.06
2018-09-27T21:20:05.155Z,71.79
2018-09-27T21:22:35.516Z,71.87
2018-09-27T21:25:06.360Z,71.77
2018-09-27T21:27:36.327Z,71.86
2018-09-27T21:30:06.866Z,71.20
2018-09-27T21:32:36.796Z,72.31
2018-09-27T21:35:07.679Z,72.24
2018-09-27T21:37:37.773Z,72.47
2018-09-27T21:40:07.895Z,72.03
2018-09-27T21:42:37.824Z,71.93
2018-09-27T21:45:07.850Z,72.71
2018-09-27T21:47:38.012Z,72.57
2018-09-27T21:50:08.052Z,72.43
2018-09-27T21:52:37.829Z,71.93
2018-09-27T21:55:07.621Z,72.15
2018-09-27T21:57:37.506Z,72.99
2018-09-27T22:00:07.790Z,73.05
2018-09-27T22:02:37.745Z,72.32
2018-09-27T22:05:07.772Z,72.04
2018-09-27T22:07:37.646Z,73.21
2018-09-27T22:10:07.571Z,73.33
2018-09-27T22:12:37.587Z,72.54
2018-09-27T22:15:07.646Z,72.69
2018-09-27T22:17:37.659Z,72.52
2018-09-27T22:20:07.597Z,73.18
2018-09-27T22:22:37.767Z,73.63
2018-09-27T22:25:07.687Z,73.24
2018-09-27T22:27:37.512Z,73.34
2018-09-27T22:30:08.437Z,73.00
2018-09-27T22:32:38.286Z,73.89
2018-09-27T22:35:08.271Z,74.65
2018-09-27T22:37:38.178Z,74.83
2018-09-27T22:40:08.163Z,74.83
2018-09-27T22:42:38.113Z,74.81
2018-09-27T22:45:08.176Z,74.88
2018-09-27T22:47:37.993Z,74.89
2018-09-27T22:50:07.869Z,75.40
2018-09-27T22:52:37.825Z,75.50
2018-09-27T22:55:07.797Z,75.23
2018-09-27T22:57:37.665Z,75.00
2018-09-27T23:00:08.041Z,75.03
2018-09-27T23:02:38.116Z,75.09
2018-09-27T23:05:08.942Z,75.28
2018-09-27T23:07:38.768Z,75.65
2018-09-27T23:10:08.621Z,75.98
2018-09-27T23:12:38.619Z,75.72
2018-09-27T23:15:08.814Z,77.02
2018-09-27T23:17:39.209Z,76.85
2018-09-27T23:20:11.315Z,77.11
2018-09-27T23:22:41.192Z,77.45
2018-09-27T23:25:11.060Z,77.22
2018-09-27T23:27:40.821Z,78.10
2018-09-27T23:30:10.566Z,77.70
2018-09-27T23:32:40.429Z,77.58
2018-09-27T23:35:10.450Z,76.45
2018-09-27T23:37:40.423Z,77.07
2018-09-27T23:40:10.335Z,78.34
2018-09-27T23:42:40.451Z,78.63
2018-09-27T23:45:10.438Z,78.36
2018-09-27T23:47:40.563Z,78.15
2018-09-27T23:50:10.519Z,78.12
2018-09-27T23:52:40.420Z,77.68
2018-09-27T23:55:10.157Z,76.98
2018-09-27T23:57:40.020Z,77.68
